KENV/ENV METAR and TAF weather

Enter ICAO airport designator
Station Type Date Time Source
KENV METAR 2019/10/23 01:56 UTC NOAA

KENV 230156Z AUTO 02009KT 10SM SCT085 16/01 A3023 RMK AO2 SLP238 T01560006


Station Type Date Time Source
KENV Decoded METAR 2019/10/23 01:56 UTC NOAA

Wendover / Air Force Auxillary Field, UT, United States (KENV) 40-44N 114-02W 1292M
Oct 22, 2019 - 09:56 PM EDT / 2019.10.23 0156 UTC
Wind: from the NNE (020 degrees) at 10 MPH (9 KT):0
Visibility: 10 mile(s):0
Sky conditions: partly cloudy
Temperature: 60.1 F (15.6 C)
Dew Point: 33.1 F (0.6 C)
Relative Humidity: 36%
Pressure (altimeter): 30.23 in. Hg (1023 hPa)
ob: KENV 230156Z AUTO 02009KT 10SM SCT085 16/01 A3023 RMK AO2 SLP238 T01560006
cycle: 2

Station Type Date Time Source
KENV TAF 2019/10/23 02:36 UTC NOAA

TAF
AMD KENV 230134Z 2302/2324 30011KT P6SM OVC080
FM231600 32011G20KT P6SM SKC

Example: see airport list